sensor_id;sensor_type;location;lat;lon;timestamp;temperature;humidity
21744;DHT22;11034;48.556;9.342;2023-03-01T05:47:34;-1.80;99.90
21744;DHT22;11034;48.556;9.342;2023-03-01T05:50:02;-1.80;99.90
21744;DHT22;11034;48.556;9.342;2023-03-01T05:52:30;-1.80;99.90
21744;DHT22;11034;48.556;9.342;2023-03-01T05:54:58;-1.80;99.90
21744;DHT22;11034;48.556;9.342;2023-03-01T05:57:28;-1.70;99.90
21744;DHT22;11034;48.556;9.342;2023-03-01T05:59:56;-1.60;99.90
21744;DHT22;11034;48.556;9.342;2023-03-01T06:02:24;-1.60;99.90
21744;DHT22;11034;48.556;9.342;2023-03-01T06:04:55;-1.60;99.90
21744;DHT22;11034;48.556;9.342;2023-03-01T06:07:23;-1.60;99.90
21744;DHT22;11034;48.556;9.342;2023-03-01T06:09:51;-1.60;99.90
21744;DHT22;11034;48.556;9.342;2023-03-01T06:12:19;-1.60;99.90
21744;DHT22;11034;48.556;9.342;2023-03-01T06:14:47;-1.50;99.90
21744;DHT22;11034;48.556;9.342;2023-03-01T06:17:15;-1.50;99.90
21744;DHT22;11034;48.556;9.342;2023-03-01T06:19:43;-1.60;99.90
21744;DHT22;11034;48.556;9.342;2023-03-01T06:22:12;-1.60;99.90
21744;DHT22;11034;48.556;9.342;2023-03-01T06:24:41;-1.80;99.90
21744;DHT22;11034;48.556;9.342;2023-03-01T06:27:08;-1.90;99.90
21744;DHT22;11034;48.556;9.342;2023-03-01T06:29:36;-1.90;99.90
21744;DHT22;11034;48.556;9.342;2023-03-01T06:32:07;-2.00;99.90
21744;DHT22;11034;48.556;9.342;2023-03-01T06:34:35;-2.00;99.90
21744;DHT22;11034;48.556;9.342;2023-03-01T06:37:03;-2.10;99.90
21744;DHT22;11034;48.556;9.342;2023-03-01T06:39:33;-2.00;99.90
21744;DHT22;11034;48.556;9.342;2023-03-01T06:42:01;-2.00;99.90
21744;DHT22;11034;48.556;9.342;2023-03-01T06:44:29;-2.00;99.90
21744;DHT22;11034;48.556;9.342;2023-03-01T06:46:57;-1.90;99.90
21744;DHT22;11034;48.556;9.342;2023-03-01T06:49:26;-1.90;99.90
21744;DHT22;11034;48.556;9.342;2023-03-01T06:51:54;-1.80;99.90
21744;DHT22;11034;48.556;9.342;2023-03-01T06:54:22;-1.80;99.90
21744;DHT22;11034;48.556;9.342;2023-03-01T06:56:51;-1.80;99.90
21744;DHT22;11034;48.556;9.342;2023-03-01T06:59:19;-1.70;99.90
21744;DHT22;11034;48.556;9.342;2023-03-01T07:01:47;-1.70;99.90
21744;DHT22;11034;48.556;9.342;2023-03-01T07:04:15;-1.60;99.90
21744;DHT22;11034;48.556;9.342;2023-03-01T07:06:43;-1.60;99.90
21744;DHT22;11034;48.556;9.342;2023-03-01T07:09:11;-1.50;99.90
21744;DHT22;11034;48.556;9.342;2023-03-01T07:11:40;-1.50;99.90
21744;DHT22;11034;48.556;9.342;2023-03-01T07:14:09;-1.50;99.90
21744;DHT22;11034;48.556;9.342;2023-03-01T07:16:37;-1.40;99.90
21744;DHT22;11034;48.556;9.342;2023-03-01T07:19:05;-1.30;99.90
21744;DHT22;11034;48.556;9.342;2023-03-01T07:21:33;-1.20;99.90
21744;DHT22;11034;48.556;9.342;2023-03-01T07:24:01;-1.20;99.90
21744;DHT22;11034;48.556;9.342;2023-03-01T07:26:29;-1.10;99.90
21744;DHT22;11034;48.556;9.342;2023-03-01T07:28:58;-1.10;99.90
21744;DHT22;11034;48.556;9.342;2023-03-01T07:31:28;-1.00;99.90
21744;DHT22;11034;48.556;9.342;2023-03-01T07:33:56;-0.90;99.90
21744;DHT22;11034;48.556;9.342;2023-03-01T07:36:25;-0.90;99.90
21744;DHT22;11034;48.556;9.342;2023-03-01T07:38:53;-0.90;99.90
21744;DHT22;11034;48.556;9.342;2023-03-01T07:41:22;-0.80;99.90
21744;DHT22;11034;48.556;9.342;2023-03-01T07:43:50;-0.80;99.90
21744;DHT22;11034;48.556;9.342;2023-03-01T15:02:34;6.20;99.90
21744;DHT22;11034;48.556;9.342;2023-03-01T15:05:04;6.20;99.90
21744;DHT22;11034;48.556;9.342;2023-03-01T15:07:38;6.20;99.90
21744;DHT22;11034;48.556;9.342;2023-03-01T15:10:14;6.30;99.90
21744;DHT22;11034;48.556;9.342;2023-03-01T15:12:43;6.30;99.90
21744;DHT22;11034;48.556;9.342;2023-03-01T15:15:33;6.30;99.90
21744;DHT22;11034;48.556;9.342;2023-03-01T15:18:05;6.30;99.90
21744;DHT22;11034;48.556;9.342;2023-03-01T15:20:34;6.20;99.90
21744;DHT22;11034;48.556;9.342;2023-03-01T15:23:03;6.20;99.90
21744;DHT22;11034;48.556;9.342;2023-03-01T15:25:32;6.20;99.90
21744;DHT22;11034;48.556;9.342;2023-03-01T15:28:01;6.20;99.90
21744;DHT22;11034;48.556;9.342;2023-03-01T15:30:32;6.10;99.90
21744;DHT22;11034;48.556;9.342;2023-03-01T15:33:29;6.10;99.90
21744;DHT22;11034;48.556;9.342;2023-03-01T15:35:59;6.00;99.90
21744;DHT22;11034;48.556;9.342;2023-03-01T15:38:31;6.00;99.90
21744;DHT22;11034;48.556;9.342;2023-03-01T15:41:03;5.90;99.90
21744;DHT22;11034;48.556;9.342;2023-03-01T15:43:39;5.90;99.90
21744;DHT22;11034;48.556;9.342;2023-03-01T15:46:20;5.90;99.90
21744;DHT22;11034;48.556;9.342;2023-03-01T15:48:53;5.90;99.90
21744;DHT22;11034;48.556;9.342;2023-03-01T15:51:31;5.90;99.90
21744;DHT22;11034;48.556;9.342;2023-03-01T15:54:02;5.80;99.90
21744;DHT22;11034;48.556;9.342;2023-03-01T15:56:31;5.80;99.90
21744;DHT22;11034;48.556;9.342;2023-03-01T15:59:01;5.80;99.90
21744;DHT22;11034;48.556;9.342;2023-03-01T16:01:29;5.70;99.90
21744;DHT22;11034;48.556;9.342;2023-03-01T16:04:02;5.70;99.90
21744;DHT22;11034;48.556;9.342;2023-03-01T16:06:30;5.70;99.90
21744;DHT22;11034;48.556;9.342;2023-03-01T16:08:59;5.60;99.90
21744;DHT22;11034;48.556;9.342;2023-03-01T16:11:26;5.60;99.90
21744;DHT22;11034;48.556;9.342;2023-03-01T16:13:54;5.60;99.90
21744;DHT22;11034;48.556;9.342;2023-03-01T16:16:23;5.50;99.90
21744;DHT22;11034;48.556;9.342;2023-03-01T16:18:51;5.50;99.90
21744;DHT22;11034;48.556;9.342;2023-03-01T16:21:24;5.40;99.90
21744;DHT22;11034;48.556;9.342;2023-03-01T16:23:52;5.40;99.90
21744;DHT22;11034;48.556;9.342;2023-03-01T16:26:20;5.30;99.90
21744;DHT22;11034;48.556;9.342;2023-03-01T16:28:48;5.30;99.90
21744;DHT22;11034;48.556;9.342;2023-03-01T16:31:18;5.20;99.90
21744;DHT22;11034;48.556;9.342;2023-03-01T16:33:47;5.10;99.90
21744;DHT22;11034;48.556;9.342;2023-03-01T16:36:19;5.10;99.90
21744;DHT22;11034;48.556;9.342;2023-03-01T16:38:51;5.10;99.90
21744;DHT22;11034;48.556;9.342;2023-03-01T16:41:22;5.10;99.90
21744;DHT22;11034;48.556;9.342;2023-03-01T16:43:50;5.10;99.90
21744;DHT22;11034;48.556;9.342;2023-03-01T16:46:20;5.10;99.90
21744;DHT22;11034;48.556;9.342;2023-03-01T16:48:49;5.00;99.90
21744;DHT22;11034;48.556;9.342;2023-03-01T16:51:18;5.00;99.90
21744;DHT22;11034;48.556;9.342;2023-03-01T16:53:47;4.90;99.90
21744;DHT22;11034;48.556;9.342;2023-03-01T16:56:17;4.90;99.90
21744;DHT22;11034;48.556;9.342;2023-03-01T16:58:46;4.80;99.90
21744;DHT22;11034;48.556;9.342;2023-03-01T17:01:15;4.60;99.90
21744;DHT22;11034;48.556;9.342;2023-03-01T17:03:45;4.60;99.90
21744;DHT22;11034;48.556;9.342;2023-03-01T17:06:15;4.40;99.90
21744;DHT22;11034;48.556;9.342;2023-03-01T17:08:44;4.30;99.90
21744;DHT22;11034;48.556;9.342;2023-03-01T17:11:14;4.10;99.90
21744;DHT22;11034;48.556;9.342;2023-03-01T17:13:44;3.90;99.90
21744;DHT22;11034;48.556;9.342;2023-03-01T17:16:15;3.80;99.90
21744;DHT22;11034;48.556;9.342;2023-03-01T17:18:44;3.60;99.90
21744;DHT22;11034;48.556;9.342;2023-03-01T17:21:12;3.50;99.90
21744;DHT22;11034;48.556;9.342;2023-03-01T17:23:43;3.40;99.90
21744;DHT22;11034;48.556;9.342;2023-03-01T17:26:11;3.40;99.90
21744;DHT22;11034;48.556;9.342;2023-03-01T17:28:40;3.30;99.90
21744;DHT22;11034;48.556;9.342;2023-03-01T17:31:11;3.20;99.90
21744;DHT22;11034;48.556;9.342;2023-03-01T17:33:39;3.10;99.90
21744;DHT22;11034;48.556;9.342;2023-03-01T17:36:07;3.20;99.90
21744;DHT22;11034;48.556;9.342;2023-03-01T17:38:35;3.20;99.90
21744;DHT22;11034;48.556;9.342;2023-03-01T17:41:04;3.20;99.90
21744;DHT22;11034;48.556;9.342;2023-03-01T17:43:32;3.20;99.90
21744;DHT22;11034;48.556;9.342;2023-03-01T17:46:01;3.30;99.90
21744;DHT22;11034;48.556;9.342;2023-03-01T17:48:30;3.30;99.90
21744;DHT22;11034;48.556;9.342;2023-03-01T17:50:58;3.50;99.90
21744;DHT22;11034;48.556;9.342;2023-03-01T17:53:26;3.60;99.90
21744;DHT22;11034;48.556;9.342;2023-03-01T17:55:59;3.60;99.90
21744;DHT22;11034;48.556;9.342;2023-03-01T17:58:28;3.60;99.90
21744;DHT22;11034;48.556;9.342;2023-03-01T18:01:06;3.60;99.90
21744;DHT22;11034;48.556;9.342;2023-03-01T18:03:36;3.50;99.90
21744;DHT22;11034;48.556;9.342;2023-03-01T18:06:10;3.50;99.90
21744;DHT22;11034;48.556;9.342;2023-03-01T18:08:38;3.40;99.90
21744;DHT22;11034;48.556;9.342;2023-03-01T18:11:06;3.30;99.90
21744;DHT22;11034;48.556;9.342;2023-03-01T18:13:35;3.20;99.90
21744;DHT22;11034;48.556;9.342;2023-03-01T18:16:05;3.10;99.90
21744;DHT22;11034;48.556;9.342;2023-03-01T18:18:33;2.90;99.90
21744;DHT22;11034;48.556;9.342;2023-03-01T18:21:03;2.80;99.90
21744;DHT22;11034;48.556;9.342;2023-03-01T18:23:32;2.60;99.90
21744;DHT22;11034;48.556;9.342;2023-03-01T18:26:02;2.50;99.90
21744;DHT22;11034;48.556;9.342;2023-03-01T18:28:32;2.40;99.90
21744;DHT22;11034;48.556;9.342;2023-03-01T18:31:02;2.40;99.90
21744;DHT22;11034;48.556;9.342;2023-03-01T18:33:31;2.60;99.90
21744;DHT22;11034;48.556;9.342;2023-03-01T18:35:59;2.70;99.90
21744;DHT22;11034;48.556;9.342;2023-03-01T18:38:29;2.80;99.90
21744;DHT22;11034;48.556;9.342;2023-03-01T18:40:57;3.00;99.90
21744;DHT22;11034;48.556;9.342;2023-03-01T18:43:25;3.00;99.90
21744;DHT22;11034;48.556;9.342;2023-03-01T18:45:57;3.10;99.90
21744;DHT22;11034;48.556;9.342;2023-03-01T18:48:26;3.10;99.90
21744;DHT22;11034;48.556;9.342;2023-03-01T18:50:55;3.10;99.90
21744;DHT22;11034;48.556;9.342;2023-03-01T18:53:23;3.10;99.90
21744;DHT22;11034;48.556;9.342;2023-03-01T18:55:58;3.10;99.90
21744;DHT22;11034;48.556;9.342;2023-03-01T18:58:27;3.10;99.90
21744;DHT22;11034;48.556;9.342;2023-03-01T19:00:55;3.10;99.90
21744;DHT22;11034;48.556;9.342;2023-03-01T19:03:24;3.10;99.90
21744;DHT22;11034;48.556;9.342;2023-03-01T19:05:52;3.20;99.90
21744;DHT22;11034;48.556;9.342;2023-03-01T19:08:20;3.10;99.90
21744;DHT22;11034;48.556;9.342;2023-03-01T19:10:55;3.00;99.90
21744;DHT22;11034;48.556;9.342;2023-03-01T19:13:24;2.80;99.90
21744;DHT22;11034;48.556;9.342;2023-03-01T19:16:00;2.60;99.90
21744;DHT22;11034;48.556;9.342;2023-03-01T19:18:29;2.40;99.90
21744;DHT22;11034;48.556;9.342;2023-03-01T19:20:57;2.10;99.90
21744;DHT22;11034;48.556;9.342;2023-03-01T19:23:31;2.00;99.90
21744;DHT22;11034;48.556;9.342;2023-03-01T19:26:04;1.90;99.90
21744;DHT22;11034;48.556;9.342;2023-03-01T19:28:33;1.70;99.90
21744;DHT22;11034;48.556;9.342;2023-03-01T19:31:07;1.60;99.90
21744;DHT22;11034;48.556;9.342;2023-03-01T19:33:35;1.40;99.90
21744;DHT22;11034;48.556;9.342;2023-03-01T19:36:06;1.40;99.90
21744;DHT22;11034;48.556;9.342;2023-03-01T19:38:36;1.40;99.90
21744;DHT22;11034;48.556;9.342;2023-03-01T19:41:07;1.50;99.90
21744;DHT22;11034;48.556;9.342;2023-03-01T19:43:35;1.50;99.90
21744;DHT22;11034;48.556;9.342;2023-03-01T19:46:03;1.60;99.90
21744;DHT22;11034;48.556;9.342;2023-03-01T19:48:31;1.60;99.90
21744;DHT22;11034;48.556;9.342;2023-03-01T19:51:00;1.50;99.90
21744;DHT22;11034;48.556;9.342;2023-03-01T19:53:28;1.40;99.90
21744;DHT22;11034;48.556;9.342;2023-03-01T19:55:56;1.40;99.90
21744;DHT22;11034;48.556;9.342;2023-03-01T19:58:26;1.30;99.90
21744;DHT22;11034;48.556;9.342;2023-03-01T20:00:55;1.30;99.90
21744;DHT22;11034;48.556;9.342;2023-03-01T20:03:25;1.30;99.90
21744;DHT22;11034;48.556;9.342;2023-03-01T20:05:53;1.30;99.90
21744;DHT22;11034;48.556;9.342;2023-03-01T20:08:22;1.30;99.90
21744;DHT22;11034;48.556;9.342;2023-03-01T20:10:51;1.30;99.90
21744;DHT22;11034;48.556;9.342;2023-03-01T20:13:19;1.30;99.90
21744;DHT22;11034;48.556;9.342;2023-03-01T20:15:50;1.20;99.90
21744;DHT22;11034;48.556;9.342;2023-03-01T20:18:18;1.40;99.90
21744;DHT22;11034;48.556;9.342;2023-03-01T20:20:47;1.70;99.90
21744;DHT22;11034;48.556;9.342;2023-03-01T20:23:15;1.80;99.90
21744;DHT22;11034;48.556;9.342;2023-03-01T20:25:44;1.80;99.90
21744;DHT22;11034;48.556;9.342;2023-03-01T20:28:14;1.70;99.90
21744;DHT22;11034;48.556;9.342;2023-03-01T20:30:42;1.80;99.90
21744;DHT22;11034;48.556;9.342;2023-03-01T20:33:11;1.80;99.90
21744;DHT22;11034;48.556;9.342;2023-03-01T20:35:40;1.80;99.90
21744;DHT22;11034;48.556;9.342;2023-03-01T20:38:08;1.80;99.90
21744;DHT22;11034;48.556;9.342;2023-03-01T20:40:37;1.70;99.90
21744;DHT22;11034;48.556;9.342;2023-03-01T20:43:05;1.60;99.90
21744;DHT22;11034;48.556;9.342;2023-03-01T20:45:33;1.40;99.90
21744;DHT22;11034;48.556;9.342;2023-03-01T20:48:01;1.30;99.90
21744;DHT22;11034;48.556;9.342;2023-03-01T20:50:30;1.10;99.90
21744;DHT22;11034;48.556;9.342;2023-03-01T20:52:58;1.00;99.90
21744;DHT22;11034;48.556;9.342;2023-03-01T20:55:26;0.80;99.90
21744;DHT22;11034;48.556;9.342;2023-03-01T20:57:54;0.80;99.90
